Aérodrome :
LOGIN :

S'inscrire | Disclaimer

   EN    FR    IT 

 










Légende :    VFR   VFR Marginal   IFR   IFR Intensif   IFR Très Intensif
Visi : 
Plafond : 
>= 8 km
>= 3000ft
5 à 8 km
1000 à 3000 ft
1500m à 5 km
500 à 1000 ft
800 à 1500m
200 à 500 ft
< 800m
< 200 ft
Symboles :   Orages  Brouillard  Fortes neiges  Fortes précipitations  Vent > 20 kt
SIGMETs :   Divers  Orages  Givrage  Turbulence  Onde Orograph.  Cendres Volcan.







- Altitude de l'aérodrome : 1416 ft
- Code IATA : ZRH


LSZH - Zurich

DERNIER METAR :
  • 101250Z 25008KT 170V280 9999 -SHRA FEW018 SCT025 BKN035 05/02 Q1024 NOSIG

METARs EXPIRÉS :
  • 101220Z 25005KT 9999 -RA FEW024 SCT030 BKN035 06/02 Q1024 NOSIG
  • 101150Z 25007KT 210V270 9999 FEW025 SCT030 BKN040 06/02 Q1024 NOSIG
  • 101120Z 25006KT 210V280 9999 FEW026 BKN040 06/01 Q1024 NOSIG
  • 101050Z 25007KT 9999 FEW025 BKN040 06/01 Q1025 NOSIG
  • 101020Z 24006KT 9999 FEW025 SCT028 BKN040 05/01 Q1025 NOSIG

TAF TAF LSZH
Valide du 10 à 12h jusqu'au 11 à 18h UTC


101125Z 1012/1118 25007KT 9999 FEW025 BKN040 TX07/1014Z TN00/1106Z TX04/1114Z
PROB40
TEMPO 1012/1103 SHRA
PROB30
TEMPO 1021/1109 4000 SHRASN
PROB30
TEMPO 1106/1115 2500 SHSN BKN012
ATIS : +41 43 816 2295 (DEP) +41 43 816 2294 (ARR)
Pas de NOTAMs connus pour ce terrain.



MET'MAP, la Météo Aéronautique d'un coup d'oeil ! - Copyright ORBIFLY Décembre 2007 - Disclaimer

ORBIFLY MET'MAP TEAM :

Programmation & Développement : Alexandra Zaïnal
Conception & Développement : Baudouin d'Aumeries
Co-Programmation & Développement : Marc-Olivier Méhu
Soutien technique & logistique : Manuel Goepfert

Contact : metmap@orbifly.com




SOURCES & CREDITS :

   NOAA